createdAt,value
2018-09-16T00:00:16.973Z,9.90
2018-09-16T00:02:45.293Z,9.90
2018-09-16T00:05:13.648Z,9.90
2018-09-16T00:07:41.979Z,9.90
2018-09-16T00:10:10.340Z,9.90
2018-09-16T00:12:38.693Z,9.90
2018-09-16T00:15:07.074Z,10.00
2018-09-16T00:17:35.392Z,10.00
2018-09-16T00:20:03.760Z,9.90
2018-09-16T00:22:32.099Z,9.90
2018-09-16T00:25:00.420Z,9.90
2018-09-16T00:27:28.803Z,9.90
2018-09-16T00:29:57.132Z,9.90
2018-09-16T00:32:30.756Z,9.90
2018-09-16T00:34:59.068Z,9.80
2018-09-16T00:37:27.525Z,9.80
2018-09-16T00:39:55.860Z,9.80
2018-09-16T00:42:24.212Z,9.80
2018-09-16T00:44:52.558Z,9.80
2018-09-16T00:47:20.928Z,9.80
2018-09-16T00:49:49.289Z,9.80
2018-09-16T00:52:17.639Z,9.70
2018-09-16T00:54:45.954Z,9.70
2018-09-16T00:57:14.308Z,9.60
2018-09-16T00:59:42.635Z,9.50
2018-09-16T01:02:10.987Z,9.50
2018-09-16T01:04:39.308Z,9.50
2018-09-16T01:07:07.657Z,9.50
2018-09-16T01:09:35.972Z,9.50
2018-09-16T01:12:04.326Z,9.50
2018-09-16T01:14:32.660Z,9.50
2018-09-16T01:17:01.016Z,9.40
2018-09-16T01:19:29.805Z,9.50
2018-09-16T01:21:58.179Z,9.50
2018-09-16T01:24:26.512Z,9.50
2018-09-16T01:26:54.919Z,9.40
2018-09-16T01:29:23.285Z,9.50
2018-09-16T01:31:51.664Z,9.50
2018-09-16T01:34:20.012Z,9.40
2018-09-16T01:36:48.368Z,9.40
2018-09-16T01:39:16.716Z,9.40
2018-09-16T01:41:45.111Z,9.30
2018-09-16T01:44:13.460Z,9.20
2018-09-16T01:46:41.836Z,9.20
2018-09-16T01:49:10.173Z,9.10
2018-09-16T01:51:38.528Z,9.10
2018-09-16T01:54:07.033Z,9.10
2018-09-16T01:56:35.400Z,9.00
2018-09-16T01:59:03.733Z,8.90
2018-09-16T02:01:32.113Z,8.90
2018-09-16T02:04:00.448Z,8.90
2018-09-16T02:06:28.780Z,8.90
2018-09-16T02:08:57.131Z,8.90
2018-09-16T02:11:25.459Z,8.90
2018-09-16T02:13:53.832Z,8.90
2018-09-16T02:16:22.160Z,8.80
2018-09-16T02:18:50.528Z,8.80
2018-09-16T02:21:18.856Z,8.80
2018-09-16T02:23:47.217Z,8.70
2018-09-16T02:26:15.544Z,8.70
2018-09-16T02:28:43.951Z,8.70
2018-09-16T02:31:12.280Z,8.80
2018-09-16T02:33:40.652Z,8.70
2018-09-16T02:36:09.000Z,8.70
2018-09-16T02:38:37.368Z,8.60
2018-09-16T02:41:05.772Z,8.60
2018-09-16T02:43:34.165Z,8.60
2018-09-16T02:46:02.495Z,8.50
2018-09-16T02:48:30.926Z,8.60
2018-09-16T02:50:59.255Z,8.60
2018-09-16T02:53:27.580Z,8.50
2018-09-16T02:55:55.955Z,8.60
2018-09-16T02:58:24.288Z,8.50
2018-09-16T03:00:52.655Z,8.50
2018-09-16T03:03:20.998Z,8.50
2018-09-16T03:05:49.975Z,8.40
2018-09-16T03:08:19.536Z,8.40
2018-09-16T03:10:47.982Z,8.30
2018-09-16T03:13:16.911Z,8.30
2018-09-16T03:15:45.916Z,8.40
2018-09-16T03:18:14.314Z,8.30
2018-09-16T03:20:42.673Z,8.30
2018-09-16T03:23:11.012Z,8.30
2018-09-16T03:25:39.415Z,8.30
2018-09-16T03:28:07.776Z,8.30
2018-09-16T03:30:36.151Z,8.30
2018-09-16T03:33:04.488Z,8.20
2018-09-16T03:35:32.843Z,8.20
2018-09-16T03:38:01.185Z,8.20
2018-09-16T03:40:29.581Z,8.20
2018-09-16T03:42:57.904Z,8.20
2018-09-16T03:45:26.266Z,8.20
2018-09-16T03:47:54.593Z,8.20
2018-09-16T03:50:23.020Z,8.10
2018-09-16T03:52:51.366Z,8.10
2018-09-16T03:55:19.732Z,8.10
2018-09-16T03:57:48.060Z,8.10
2018-09-16T04:00:16.452Z,8.00
2018-09-16T04:02:44.778Z,8.00
2018-09-16T04:05:13.152Z,8.00
2018-09-16T04:07:41.544Z,8.00
2018-09-16T04:10:09.908Z,8.00
2018-09-16T04:12:38.235Z,8.00
2018-09-16T04:15:06.667Z,8.00
2018-09-16T04:17:35.025Z,8.00
2018-09-16T04:20:03.352Z,8.00
2018-09-16T04:22:31.712Z,7.90
2018-09-16T04:25:00.064Z,7.90
2018-09-16T04:27:28.429Z,7.90
2018-09-16T04:29:56.749Z,7.80
2018-09-16T04:32:25.172Z,7.80
2018-09-16T04:34:53.515Z,7.80
2018-09-16T04:37:21.874Z,7.80
2018-09-16T04:39:50.208Z,7.70
2018-09-16T04:42:18.579Z,7.70
2018-09-16T04:44:46.940Z,7.70
2018-09-16T04:47:16.445Z,7.70
2018-09-16T04:49:44.866Z,7.70
2018-09-16T04:52:13.251Z,7.70
2018-09-16T04:54:41.573Z,7.70
2018-09-16T04:57:09.967Z,7.70
2018-09-16T04:59:38.296Z,7.70
2018-09-16T05:02:06.659Z,7.70
2018-09-16T05:04:35.014Z,7.60
2018-09-16T05:07:03.381Z,7.60
2018-09-16T05:09:31.711Z,7.60
2018-09-16T05:12:00.083Z,7.60
2018-09-16T05:14:28.420Z,7.50
2018-09-16T05:16:56.784Z,7.50
2018-09-16T05:19:25.125Z,7.40
2018-09-16T05:21:53.492Z,7.50
2018-09-16T05:24:21.832Z,7.50
2018-09-16T05:26:50.391Z,7.40
2018-09-16T05:29:18.708Z,7.40
2018-09-16T05:31:47.104Z,7.40
2018-09-16T05:34:15.691Z,7.50
2018-09-16T05:36:44.068Z,7.40
2018-09-16T05:39:12.425Z,7.50
2018-09-16T05:41:40.804Z,7.50
2018-09-16T05:44:09.140Z,7.60
2018-09-16T05:46:37.616Z,7.60
2018-09-16T05:49:06.024Z,7.60
2018-09-16T05:51:34.428Z,7.70
2018-09-16T05:54:02.811Z,7.70
2018-09-16T05:56:31.154Z,7.70
2018-09-16T05:58:59.651Z,7.80
2018-09-16T06:01:27.984Z,7.90
2018-09-16T06:03:56.358Z,7.90
2018-09-16T06:06:24.703Z,8.00
2018-09-16T06:08:53.086Z,8.10
2018-09-16T06:11:21.448Z,8.20
2018-09-16T06:13:49.852Z,8.20
2018-09-16T06:16:18.179Z,8.30
2018-09-16T06:18:46.575Z,8.40
2018-09-16T06:21:14.929Z,8.50
2018-09-16T06:23:43.357Z,8.60
2018-09-16T06:26:11.745Z,8.70
2018-09-16T06:28:40.124Z,8.90
2018-09-16T06:31:08.475Z,9.00
2018-09-16T06:33:36.991Z,9.10
2018-09-16T06:36:05.352Z,9.20
2018-09-16T06:38:33.726Z,9.30
2018-09-16T06:41:02.064Z,9.40
2018-09-16T06:43:30.445Z,9.50
2018-09-16T06:45:58.839Z,9.60
2018-09-16T06:48:27.220Z,9.70
2018-09-16T06:50:55.563Z,9.80
2018-09-16T06:53:23.952Z,9.80
2018-09-16T06:55:52.283Z,9.90
2018-09-16T06:58:20.681Z,10.10
2018-09-16T07:00:49.098Z,10.20
2018-09-16T07:03:17.433Z,10.20
2018-09-16T07:05:45.808Z,10.30
2018-09-16T07:08:14.220Z,10.40
2018-09-16T07:10:42.566Z,10.50
2018-09-16T07:13:10.928Z,10.60
2018-09-16T07:15:39.276Z,10.70
2018-09-16T07:18:07.652Z,10.90
2018-09-16T07:20:36.003Z,11.00
2018-09-16T07:23:04.420Z,11.10
2018-09-16T07:25:32.764Z,11.30
2018-09-16T07:28:01.177Z,11.50
2018-09-16T07:30:29.512Z,11.70
2018-09-16T07:32:57.876Z,11.80
2018-09-16T07:35:26.213Z,12.10
2018-09-16T07:37:54.575Z,12.30
2018-09-16T07:40:22.929Z,12.50
2018-09-16T07:42:51.325Z,12.60
2018-09-16T07:45:19.698Z,12.80
2018-09-16T07:47:48.044Z,13.00
2018-09-16T07:50:16.412Z,13.20
2018-09-16T07:52:44.816Z,13.40
2018-09-16T07:55:13.171Z,13.60
2018-09-16T07:57:41.504Z,13.90
2018-09-16T08:00:09.885Z,14.10
2018-09-16T08:02:38.224Z,14.20
2018-09-16T08:05:06.702Z,14.30
2018-09-16T08:07:35.039Z,14.50
2018-09-16T08:10:03.428Z,14.60
2018-09-16T08:12:31.815Z,14.80
2018-09-16T08:15:00.180Z,15.00
2018-09-16T08:17:28.540Z,15.10
2018-09-16T08:19:57.064Z,15.30
2018-09-16T08:22:25.436Z,15.40
2018-09-16T08:24:53.829Z,15.60
2018-09-16T08:27:22.220Z,15.70
2018-09-16T08:29:50.645Z,15.80
2018-09-16T08:32:19.059Z,16.00
2018-09-16T08:34:47.505Z,16.10
2018-09-16T08:37:15.847Z,16.40
2018-09-16T08:39:44.296Z,16.60
2018-09-16T08:42:12.636Z,16.70
2018-09-16T08:44:41.052Z,16.70
2018-09-16T08:47:09.412Z,16.70
2018-09-16T08:49:37.807Z,16.70
2018-09-16T08:52:06.218Z,16.80
2018-09-16T08:54:34.708Z,16.90
2018-09-16T08:57:03.094Z,16.90
2018-09-16T08:59:31.536Z,17.00
2018-09-16T09:01:59.914Z,17.20
2018-09-16T09:04:28.368Z,17.30
2018-09-16T09:06:56.748Z,17.30
2018-09-16T09:09:25.546Z,17.40
2018-09-16T09:11:53.928Z,17.40
2018-09-16T09:14:22.384Z,17.50
2018-09-16T09:16:50.697Z,17.60
2018-09-16T09:19:19.126Z,17.70
2018-09-16T09:21:47.496Z,17.80
2018-09-16T09:24:15.860Z,17.90
2018-09-16T09:26:44.240Z,17.90
2018-09-16T09:29:12.562Z,18.00
2018-09-16T09:31:40.960Z,18.10
2018-09-16T09:34:09.323Z,18.30
2018-09-16T09:36:37.723Z,18.30
2018-09-16T09:39:09.824Z,18.40
2018-09-16T09:41:38.216Z,18.50
2018-09-16T09:44:06.804Z,18.50
2018-09-16T09:46:35.208Z,18.60
2018-09-16T09:49:03.553Z,18.70
2018-09-16T09:51:31.934Z,18.70
2018-09-16T09:54:00.284Z,18.80
2018-09-16T09:56:28.656Z,18.90
2018-09-16T09:58:57.037Z,18.90
2018-09-16T10:01:25.394Z,18.90
2018-09-16T10:03:54.045Z,18.90
2018-09-16T10:06:22.440Z,19.00
2018-09-16T10:08:50.773Z,19.10
2018-09-16T10:11:19.149Z,19.10
2018-09-16T10:13:47.922Z,19.30
2018-09-16T10:16:16.309Z,19.30
2018-09-16T10:18:44.663Z,19.50
2018-09-16T10:21:13.040Z,19.50
2018-09-16T10:23:41.992Z,19.60
2018-09-16T10:26:10.376Z,19.60
2018-09-16T10:28:38.708Z,19.60
2018-09-16T10:31:07.082Z,19.70
2018-09-16T10:33:35.463Z,19.70
2018-09-16T10:36:03.864Z,19.80
2018-09-16T10:38:32.278Z,19.80
2018-09-16T10:41:00.651Z,19.80
2018-09-16T10:43:28.996Z,19.90
2018-09-16T10:45:57.411Z,20.00
2018-09-16T10:48:25.777Z,20.10
2018-09-16T10:50:54.113Z,20.20
2018-09-16T10:53:22.484Z,20.30
2018-09-16T10:55:50.828Z,20.30
2018-09-16T10:58:19.212Z,20.30
2018-09-16T11:00:47.580Z,20.40
2018-09-16T11:03:15.982Z,20.40
2018-09-16T11:05:44.360Z,20.40
2018-09-16T11:08:16.603Z,20.40
2018-09-16T11:10:45.060Z,20.50
2018-09-16T11:13:13.445Z,20.60
2018-09-16T11:15:41.914Z,20.50
2018-09-16T11:18:10.251Z,20.60
2018-09-16T11:20:38.637Z,20.60
2018-09-16T11:23:07.119Z,20.70
2018-09-16T11:25:35.455Z,20.80
2018-09-16T11:28:03.857Z,20.90
2018-09-16T11:30:32.265Z,20.90
2018-09-16T11:33:00.639Z,20.90
2018-09-16T11:35:29.177Z,21.00
2018-09-16T11:37:57.618Z,21.00
2018-09-16T11:40:25.963Z,21.10
2018-09-16T11:42:54.368Z,21.10
2018-09-16T11:45:22.746Z,21.10
2018-09-16T11:47:51.140Z,21.20
2018-09-16T11:50:19.516Z,21.40
2018-09-16T11:52:47.921Z,21.60
2018-09-16T11:55:16.315Z,21.70
2018-09-16T11:57:44.745Z,21.70
2018-09-16T12:00:13.155Z,21.70
2018-09-16T12:02:41.564Z,21.80
2018-09-16T12:05:10.020Z,21.80
2018-09-16T12:07:38.412Z,21.90
2018-09-16T12:10:06.848Z,21.90
2018-09-16T12:12:35.364Z,22.00
2018-09-16T12:15:03.782Z,22.00
2018-09-16T12:17:32.235Z,22.00
2018-09-16T12:20:00.711Z,22.00
2018-09-16T12:22:29.072Z,22.10
2018-09-16T12:24:57.492Z,22.10
2018-09-16T12:27:25.855Z,22.10
2018-09-16T12:29:54.232Z,22.20
2018-09-16T12:32:22.574Z,22.20
2018-09-16T12:34:50.991Z,22.30
2018-09-16T12:37:19.395Z,22.20
2018-09-16T12:39:47.804Z,22.20
2018-09-16T12:42:16.160Z,22.30
2018-09-16T12:44:44.548Z,22.30
2018-09-16T12:47:12.908Z,22.40
2018-09-16T12:49:41.320Z,22.50
2018-09-16T12:52:09.748Z,22.50
2018-09-16T12:54:38.145Z,22.50
2018-09-16T12:57:06.562Z,22.60
2018-09-16T12:59:34.937Z,22.70
2018-09-16T13:02:03.299Z,22.70
2018-09-16T13:04:31.732Z,22.80
2018-09-16T13:07:00.081Z,22.70
2018-09-16T13:09:28.474Z,22.70
2018-09-16T13:11:56.833Z,22.70
2018-09-16T13:14:25.264Z,22.70
2018-09-16T13:16:53.672Z,22.70
2018-09-16T13:19:22.143Z,22.70
2018-09-16T13:21:50.497Z,22.70
2018-09-16T13:24:19.752Z,22.80
2018-09-16T13:26:48.104Z,22.80
2018-09-16T13:29:16.742Z,22.80
2018-09-16T13:31:45.188Z,22.80
2018-09-16T13:34:13.556Z,22.80
2018-09-16T13:36:41.904Z,22.90
2018-09-16T13:39:11.278Z,22.90
2018-09-16T13:41:39.688Z,22.90
2018-09-16T13:44:08.192Z,22.80
2018-09-16T13:46:36.984Z,22.90
2018-09-16T13:49:05.976Z,22.90
2018-09-16T13:51:34.329Z,22.90
2018-09-16T13:54:02.736Z,23.00
2018-09-16T13:56:31.088Z,23.00
2018-09-16T13:58:59.491Z,23.00
2018-09-16T14:01:27.881Z,23.00
2018-09-16T14:03:56.288Z,23.00
2018-09-16T14:06:24.640Z,23.10
2018-09-16T14:08:53.037Z,23.10
2018-09-16T14:11:21.464Z,23.10
2018-09-16T14:13:49.811Z,23.20
2018-09-16T14:16:18.321Z,23.20
2018-09-16T14:18:46.678Z,23.20
2018-09-16T14:21:15.060Z,23.20
2018-09-16T14:23:43.407Z,23.20
2018-09-16T14:26:11.888Z,23.10
2018-09-16T14:28:40.252Z,23.10
2018-09-16T14:31:08.710Z,23.10
2018-09-16T14:33:37.052Z,23.10
2018-09-16T14:36:05.454Z,23.10
2018-09-16T14:38:33.780Z,23.20
2018-09-16T14:41:02.221Z,23.20
2018-09-16T14:43:30.568Z,23.20
2018-09-16T14:45:58.973Z,23.20
2018-09-16T14:48:27.332Z,23.20
2018-09-16T14:50:55.768Z,23.20
2018-09-16T14:53:24.118Z,23.30
2018-09-16T14:55:52.493Z,23.20
2018-09-16T14:58:20.881Z,23.30
2018-09-16T15:00:49.285Z,23.30
2018-09-16T15:03:17.633Z,23.30
2018-09-16T15:05:46.056Z,23.30
2018-09-16T15:08:16.800Z,23.30
2018-09-16T15:10:45.828Z,23.20
2018-09-16T15:13:14.848Z,23.20
2018-09-16T15:15:43.185Z,23.20
2018-09-16T15:18:11.520Z,23.20
2018-09-16T15:20:39.960Z,23.20
2018-09-16T15:23:08.509Z,23.20
2018-09-16T15:25:36.900Z,23.20
2018-09-16T15:28:05.348Z,23.20
2018-09-16T15:30:33.784Z,23.20
2018-09-16T15:33:02.178Z,23.20
2018-09-16T15:35:30.559Z,23.20
2018-09-16T15:37:58.908Z,23.20
2018-09-16T15:40:27.310Z,23.20
2018-09-16T15:42:55.686Z,23.20
2018-09-16T15:45:24.093Z,23.20
2018-09-16T15:47:52.427Z,23.20
2018-09-16T15:50:20.799Z,23.20
2018-09-16T15:52:49.148Z,23.30
2018-09-16T15:55:17.578Z,23.30
2018-09-16T15:57:45.996Z,23.30
2018-09-16T16:00:14.339Z,23.30
2018-09-16T16:02:42.720Z,23.30
2018-09-16T16:05:11.068Z,23.30
2018-09-16T16:07:39.473Z,23.30
2018-09-16T16:10:07.804Z,23.20
2018-09-16T16:12:36.204Z,23.30
2018-09-16T16:15:05.349Z,23.20
2018-09-16T16:17:33.868Z,23.20
2018-09-16T16:20:02.268Z,23.20
2018-09-16T16:22:30.781Z,23.10
2018-09-16T16:24:59.166Z,23.00
2018-09-16T16:27:27.680Z,22.90
2018-09-16T16:29:56.096Z,22.90
2018-09-16T16:32:24.612Z,22.90
2018-09-16T16:34:52.982Z,22.80
2018-09-16T16:37:21.891Z,22.80
2018-09-16T16:39:50.256Z,22.70
2018-09-16T16:42:18.661Z,22.70
2018-09-16T16:44:47.680Z,22.70
2018-09-16T16:47:16.063Z,22.60
2018-09-16T16:49:44.412Z,22.60
2018-09-16T16:52:12.864Z,22.50
2018-09-16T16:54:41.236Z,22.50
2018-09-16T16:57:09.717Z,22.40
2018-09-16T16:59:38.215Z,22.40
2018-09-16T17:02:06.732Z,22.40
2018-09-16T17:04:35.247Z,22.40
2018-09-16T17:07:04.138Z,22.30
2018-09-16T17:09:32.731Z,22.20
2018-09-16T17:12:01.153Z,22.10
2018-09-16T17:14:29.566Z,22.10
2018-09-16T17:16:57.999Z,22.00
2018-09-16T17:19:26.429Z,22.00
2018-09-16T17:21:54.881Z,21.90
2018-09-16T17:24:23.345Z,21.90
2018-09-16T17:26:51.805Z,21.80
2018-09-16T17:29:20.262Z,21.80
2018-09-16T17:31:48.752Z,21.70
2018-09-16T17:34:17.178Z,21.60
2018-09-16T17:36:45.616Z,21.60
2018-09-16T17:39:13.993Z,21.50
2018-09-16T17:41:42.477Z,21.40
2018-09-16T17:44:10.955Z,21.20
2018-09-16T17:46:39.366Z,21.20
2018-09-16T17:49:07.744Z,21.10
2018-09-16T17:51:36.104Z,21.00
2018-09-16T17:54:04.648Z,20.90
2018-09-16T17:56:33.055Z,20.80
2018-09-16T17:59:02.662Z,20.70
2018-09-16T18:01:31.023Z,20.50
2018-09-16T18:03:59.405Z,20.40
2018-09-16T18:06:27.744Z,20.30
2018-09-16T18:08:56.184Z,20.20
2018-09-16T18:11:24.518Z,20.10
2018-09-16T18:13:52.888Z,20.10
2018-09-16T18:16:21.224Z,20.00
2018-09-16T18:18:49.597Z,19.90
2018-09-16T18:21:17.941Z,19.80
2018-09-16T18:23:46.360Z,19.80
2018-09-16T18:26:14.709Z,19.70
2018-09-16T18:28:43.117Z,19.60
2018-09-16T18:31:11.449Z,19.60
2018-09-16T18:33:39.827Z,19.50
2018-09-16T18:36:09.717Z,19.40
2018-09-16T18:38:38.053Z,19.30
2018-09-16T18:41:06.446Z,19.20
2018-09-16T18:43:34.820Z,19.20
2018-09-16T18:46:03.155Z,19.10
2018-09-16T18:48:31.540Z,19.00
2018-09-16T18:50:59.871Z,18.90
2018-09-16T18:53:28.260Z,18.70
2018-09-16T18:55:56.655Z,18.60
2018-09-16T18:58:25.025Z,18.60
2018-09-16T19:00:53.624Z,18.50
2018-09-16T19:03:22.020Z,18.40
2018-09-16T19:05:50.458Z,18.30
2018-09-16T19:08:18.872Z,18.30
2018-09-16T19:10:47.228Z,18.20
2018-09-16T19:13:15.628Z,18.10
2018-09-16T19:15:43.982Z,18.10
2018-09-16T19:18:12.360Z,18.10
2018-09-16T19:20:40.701Z,18.00
2018-09-16T19:23:09.071Z,18.00
2018-09-16T19:25:37.541Z,17.90
2018-09-16T19:28:05.870Z,17.90
2018-09-16T19:30:34.260Z,17.80
2018-09-16T19:33:02.600Z,17.80
2018-09-16T19:35:30.999Z,17.70
2018-09-16T19:37:59.363Z,17.60
2018-09-16T19:40:27.784Z,17.50
2018-09-16T19:42:56.163Z,17.50
2018-09-16T19:45:24.497Z,17.40
2018-09-16T19:47:52.875Z,17.30
2018-09-16T19:50:21.278Z,17.20
2018-09-16T19:52:49.612Z,17.10
2018-09-16T19:55:17.980Z,17.10
2018-09-16T19:57:46.317Z,17.10
2018-09-16T20:00:14.700Z,17.00
2018-09-16T20:02:43.087Z,17.00
2018-09-16T20:05:11.514Z,16.90
2018-09-16T20:07:39.877Z,16.90
2018-09-16T20:10:08.272Z,16.80
2018-09-16T20:12:36.729Z,16.80
2018-09-16T20:15:05.606Z,16.70
2018-09-16T20:17:33.956Z,16.70
2018-09-16T20:20:02.330Z,16.60
2018-09-16T20:22:30.662Z,16.50
2018-09-16T20:24:59.032Z,16.40
2018-09-16T20:27:27.372Z,16.40
2018-09-16T20:29:55.748Z,16.30
2018-09-16T20:32:24.101Z,16.20
2018-09-16T20:34:52.473Z,16.20
2018-09-16T20:37:20.829Z,16.00
2018-09-16T20:39:49.294Z,15.90
2018-09-16T20:42:17.663Z,15.80
2018-09-16T20:44:46.045Z,15.70
2018-09-16T20:47:14.392Z,15.70
2018-09-16T20:49:42.803Z,15.70
2018-09-16T20:52:11.156Z,15.60
2018-09-16T20:54:39.532Z,15.50
2018-09-16T20:57:07.888Z,15.50
2018-09-16T20:59:36.296Z,15.40
2018-09-16T21:02:04.656Z,15.40
2018-09-16T21:04:33.072Z,15.30
2018-09-16T21:07:01.436Z,15.30
2018-09-16T21:09:29.852Z,15.20
2018-09-16T21:11:58.365Z,15.20
2018-09-16T21:14:26.713Z,15.20
2018-09-16T21:16:55.116Z,15.20
2018-09-16T21:19:23.469Z,15.20
2018-09-16T21:21:51.880Z,15.20
2018-09-16T21:24:20.260Z,15.10
2018-09-16T21:26:48.648Z,15.10
2018-09-16T21:29:16.992Z,15.10
2018-09-16T21:31:45.384Z,15.00
2018-09-16T21:34:13.796Z,15.00
2018-09-16T21:36:42.203Z,15.00
2018-09-16T21:39:12.306Z,14.90
2018-09-16T21:41:40.728Z,14.90
2018-09-16T21:44:09.108Z,14.80
2018-09-16T21:46:37.533Z,14.80
2018-09-16T21:49:05.989Z,14.80
2018-09-16T21:51:34.392Z,14.70
2018-09-16T21:54:02.744Z,14.60
2018-09-16T21:56:31.130Z,14.50
2018-09-16T21:58:59.478Z,14.40
2018-09-16T22:01:27.853Z,14.40
2018-09-16T22:03:56.209Z,14.30
2018-09-16T22:06:24.592Z,14.30
2018-09-16T22:08:52.960Z,14.20
2018-09-16T22:11:21.320Z,14.20
2018-09-16T22:13:49.660Z,14.20
2018-09-16T22:16:18.031Z,14.10
2018-09-16T22:18:46.434Z,14.10
2018-09-16T22:21:14.805Z,14.00
2018-09-16T22:23:43.146Z,13.90
2018-09-16T22:26:11.536Z,13.90
2018-09-16T22:28:39.875Z,13.80
2018-09-16T22:31:08.273Z,13.80
2018-09-16T22:33:36.620Z,13.70
2018-09-16T22:36:04.997Z,13.70
2018-09-16T22:38:33.340Z,13.60
2018-09-16T22:41:01.708Z,13.60
2018-09-16T22:43:30.049Z,13.60
2018-09-16T22:45:58.454Z,13.60
2018-09-16T22:48:26.799Z,13.60
2018-09-16T22:50:55.138Z,13.60
2018-09-16T22:53:23.525Z,13.60
2018-09-16T22:55:51.869Z,13.60
2018-09-16T22:58:20.252Z,13.60
2018-09-16T23:00:48.897Z,13.60
2018-09-16T23:03:17.285Z,13.60
2018-09-16T23:05:45.624Z,13.60
2018-09-16T23:08:14.012Z,13.60
2018-09-16T23:10:42.391Z,13.60
2018-09-16T23:13:10.767Z,13.60
2018-09-16T23:15:39.096Z,13.60
2018-09-16T23:18:10.011Z,13.60
2018-09-16T23:20:38.375Z,13.60
2018-09-16T23:23:06.993Z,13.70
2018-09-16T23:25:35.342Z,13.70
2018-09-16T23:28:03.716Z,13.60
2018-09-16T23:30:32.064Z,13.60
2018-09-16T23:33:00.485Z,13.60
2018-09-16T23:35:28.836Z,13.60
2018-09-16T23:37:57.204Z,13.60
2018-09-16T23:40:25.543Z,13.50
2018-09-16T23:42:53.915Z,13.50
2018-09-16T23:45:22.309Z,13.40
2018-09-16T23:47:50.665Z,13.40
2018-09-16T23:50:19.425Z,13.40
2018-09-16T23:52:47.824Z,13.40
2018-09-16T23:55:16.214Z,13.40
2018-09-16T23:57:44.591Z,13.40
